createdAt,value
2019-05-25T00:01:11.867Z,13.43
2019-05-25T00:03:42.179Z,13.23
2019-05-25T00:06:12.635Z,13.90
2019-05-25T00:08:42.991Z,14.40
2019-05-25T00:11:13.373Z,13.63
2019-05-25T00:13:43.717Z,14.00
2019-05-25T00:16:14.103Z,13.73
2019-05-25T00:18:44.511Z,14.03
2019-05-25T00:21:14.888Z,14.63
2019-05-25T00:23:45.235Z,14.67
2019-05-25T00:26:15.599Z,14.53
2019-05-25T00:28:45.959Z,14.77
2019-05-25T00:31:16.402Z,16.40
2019-05-25T00:33:46.790Z,14.57
2019-05-25T00:36:17.164Z,14.63
2019-05-25T00:38:47.588Z,15.03
2019-05-25T00:41:17.979Z,16.10
2019-05-25T00:43:48.324Z,15.30
2019-05-25T00:46:18.719Z,16.10
2019-05-25T00:48:49.158Z,18.87
2019-05-25T00:51:26.882Z,18.43
2019-05-25T00:53:57.233Z,18.10
2019-05-25T00:56:29.531Z,15.20
2019-05-25T00:58:59.846Z,14.70
2019-05-25T01:01:30.307Z,13.70
2019-05-25T01:04:00.651Z,13.90
2019-05-25T01:06:31.034Z,14.83
2019-05-25T01:09:01.421Z,14.33
2019-05-25T01:11:33.344Z,14.13
2019-05-25T01:14:03.683Z,14.50
2019-05-25T01:16:35.141Z,14.13
2019-05-25T01:19:05.588Z,14.83
2019-05-25T01:21:35.989Z,15.27
2019-05-25T01:24:06.442Z,15.43
2019-05-25T01:26:36.863Z,15.57
2019-05-25T01:29:07.218Z,15.83
2019-05-25T01:31:37.604Z,16.47
2019-05-25T01:34:07.988Z,16.27
2019-05-25T01:36:38.380Z,16.63
2019-05-25T01:39:08.879Z,16.17
2019-05-25T01:41:39.247Z,16.60
2019-05-25T01:44:09.670Z,15.93
2019-05-25T01:46:40.115Z,16.57
2019-05-25T01:49:10.520Z,14.90
2019-05-25T01:51:40.885Z,15.90
2019-05-25T01:54:11.215Z,16.50
2019-05-25T01:56:41.646Z,15.53
2019-05-25T01:59:11.974Z,16.57
2019-05-25T02:01:42.471Z,17.17
2019-05-25T02:04:12.802Z,15.57
2019-05-25T02:06:43.183Z,15.97
2019-05-25T02:09:13.519Z,16.80
2019-05-25T02:11:43.903Z,15.53
2019-05-25T02:14:14.239Z,15.67
2019-05-25T02:16:44.614Z,15.97
2019-05-25T02:19:14.944Z,16.03
2019-05-25T02:21:45.341Z,15.60
2019-05-25T02:24:15.661Z,15.80
2019-05-25T02:26:46.166Z,15.80
2019-05-25T02:29:16.561Z,17.13
2019-05-25T02:31:46.922Z,17.23
2019-05-25T02:34:17.314Z,17.73
2019-05-25T02:36:47.681Z,17.50
2019-05-25T02:39:18.021Z,16.47
2019-05-25T02:41:48.399Z,16.20
2019-05-25T02:44:18.826Z,16.53
2019-05-25T02:46:49.209Z,15.47
2019-05-25T02:49:19.534Z,14.97
2019-05-25T02:51:49.928Z,15.07
2019-05-25T02:54:20.251Z,15.07
2019-05-25T02:56:51.707Z,15.93
2019-05-25T02:59:22.058Z,16.83
2019-05-25T03:01:52.444Z,15.77
2019-05-25T03:04:22.876Z,16.60
2019-05-25T03:06:53.818Z,16.90
2019-05-25T03:09:25.850Z,17.77
2019-05-25T03:11:57.713Z,17.60
2019-05-25T03:14:28.111Z,17.63
2019-05-25T03:16:58.729Z,17.97
2019-05-25T03:19:29.088Z,17.40
2019-05-25T03:21:59.475Z,17.60
2019-05-25T03:24:29.804Z,17.73
2019-05-25T03:27:00.188Z,17.83
2019-05-25T03:29:30.538Z,18.47
2019-05-25T03:32:00.919Z,17.40
2019-05-25T03:34:31.252Z,16.03
2019-05-25T03:37:01.645Z,15.30
2019-05-25T03:39:34.298Z,15.67
2019-05-25T03:42:04.679Z,15.70
2019-05-25T03:44:35.150Z,16.50
2019-05-25T03:47:05.547Z,15.87
2019-05-25T03:49:35.899Z,15.83
2019-05-25T03:52:06.267Z,16.20
2019-05-25T03:54:36.608Z,16.03
2019-05-25T03:57:07.011Z,15.70
2019-05-25T03:59:38.299Z,15.80
2019-05-25T04:02:08.674Z,16.20
2019-05-25T04:04:40.012Z,16.47
2019-05-25T04:07:10.403Z,16.70
2019-05-25T04:09:40.930Z,15.77
2019-05-25T04:12:11.298Z,15.07
2019-05-25T04:14:41.621Z,15.47
2019-05-25T04:17:12.004Z,15.57
2019-05-25T04:19:42.323Z,16.37
2019-05-25T04:22:12.683Z,17.33
2019-05-25T04:24:43.022Z,17.53
2019-05-25T04:27:13.403Z,17.33
2019-05-25T04:29:43.753Z,19.03
2019-05-25T04:32:14.229Z,19.57
2019-05-25T04:34:44.570Z,20.07
2019-05-25T04:37:14.949Z,19.57
2019-05-25T04:39:45.284Z,20.23
2019-05-25T04:42:15.811Z,20.20
2019-05-25T04:44:46.225Z,20.43
2019-05-25T04:47:26.566Z,20.63
2019-05-25T04:49:48.592Z,21.27
2019-05-25T04:52:18.980Z,20.80
2019-05-25T04:54:49.332Z,19.27
2019-05-25T04:57:19.716Z,20.30
2019-05-25T04:59:50.241Z,20.57
2019-05-25T05:02:20.656Z,21.13
2019-05-25T05:04:50.975Z,20.10
2019-05-25T05:07:21.490Z,20.57
2019-05-25T05:10:02.169Z,19.70
2019-05-25T05:12:23.835Z,20.43
2019-05-25T05:14:56.482Z,20.30
2019-05-25T05:17:26.173Z,19.60
2019-05-25T05:19:56.497Z,20.40
2019-05-25T05:22:26.865Z,20.67
2019-05-25T05:24:57.219Z,20.50
2019-05-25T05:27:27.785Z,20.23
2019-05-25T05:29:58.139Z,20.67
2019-05-25T05:32:31.636Z,20.57
2019-05-25T05:35:02.034Z,19.60
2019-05-25T05:37:33.019Z,20.73
2019-05-25T05:40:03.487Z,19.07
2019-05-25T05:42:35.487Z,20.30
2019-05-25T05:45:06.270Z,19.10
2019-05-25T05:47:38.603Z,19.07
2019-05-25T05:50:10.550Z,19.20
2019-05-25T05:52:41.034Z,18.73
2019-05-25T05:55:12.156Z,18.27
2019-05-25T05:57:42.543Z,18.47
2019-05-25T06:00:13.167Z,19.30
2019-05-25T06:02:43.668Z,18.87
2019-05-25T06:05:14.350Z,17.97
2019-05-25T06:07:44.701Z,17.90
2019-05-25T06:10:15.307Z,17.80
2019-05-25T06:12:45.627Z,17.93
2019-05-25T06:15:16.259Z,17.53
2019-05-25T06:17:46.705Z,17.30
2019-05-25T06:20:17.310Z,18.00
2019-05-25T06:22:47.648Z,17.57
2019-05-25T06:25:18.039Z,17.30
2019-05-25T06:27:48.369Z,17.57
2019-05-25T06:30:19.175Z,16.90
2019-05-25T06:32:49.562Z,16.97
2019-05-25T06:35:20.041Z,16.97
2019-05-25T06:37:50.384Z,17.00
2019-05-25T06:40:21.156Z,17.60
2019-05-25T06:42:51.572Z,17.70
2019-05-25T06:45:21.878Z,17.47
2019-05-25T06:47:52.212Z,17.17
2019-05-25T06:50:22.588Z,17.77
2019-05-25T06:52:53.026Z,17.40
2019-05-25T06:55:23.406Z,16.83
2019-05-25T06:57:53.755Z,16.43
2019-05-25T07:00:24.145Z,16.93
2019-05-25T07:02:54.475Z,17.40
2019-05-25T07:05:26.026Z,17.03
2019-05-25T07:07:56.426Z,16.63
2019-05-25T07:10:26.823Z,15.80
2019-05-25T07:12:57.145Z,17.13
2019-05-25T07:15:27.518Z,16.47
2019-05-25T07:17:57.901Z,16.30
2019-05-25T07:20:28.275Z,15.70
2019-05-25T07:22:58.663Z,15.17
2019-05-25T07:25:28.996Z,14.93
2019-05-25T07:28:00.455Z,16.03
2019-05-25T07:30:30.899Z,14.90
2019-05-25T07:33:01.269Z,15.17
2019-05-25T07:35:31.609Z,14.70
2019-05-25T07:38:01.983Z,15.40
2019-05-25T07:40:32.332Z,14.60
2019-05-25T07:43:02.737Z,15.80
2019-05-25T07:45:33.103Z,14.37
2019-05-25T07:48:03.468Z,14.33
2019-05-25T07:50:33.799Z,14.63
2019-05-25T07:53:04.173Z,14.70
2019-05-25T07:55:34.570Z,14.63
2019-05-25T07:58:16.445Z,14.40
2019-05-25T08:00:37.019Z,14.87
2019-05-25T08:03:07.390Z,14.53
2019-05-25T08:05:37.723Z,14.67
2019-05-25T08:08:08.080Z,15.87
2019-05-25T08:10:38.416Z,13.57
2019-05-25T08:13:08.894Z,14.03
2019-05-25T08:15:39.446Z,14.23
2019-05-25T08:18:09.827Z,15.83
2019-05-25T08:20:40.179Z,14.93
2019-05-25T08:23:10.588Z,15.40
2019-05-25T08:25:40.928Z,12.50
2019-05-25T08:28:11.376Z,14.27
2019-05-25T08:30:41.767Z,14.13
2019-05-25T08:33:13.704Z,13.30
2019-05-25T08:35:46.430Z,11.90
2019-05-25T08:38:16.113Z,12.73
2019-05-25T08:40:46.435Z,12.33
2019-05-25T08:43:16.836Z,12.47
2019-05-25T08:45:47.169Z,13.47
2019-05-25T08:48:18.331Z,12.67
2019-05-25T08:50:48.609Z,12.90
2019-05-25T08:53:23.203Z,12.23
2019-05-25T08:55:50.989Z,11.40
2019-05-25T08:58:21.370Z,11.97
2019-05-25T09:00:51.734Z,9.83
2019-05-25T09:03:22.115Z,10.10
2019-05-25T09:05:52.437Z,10.40
2019-05-25T09:08:22.951Z,11.73
2019-05-25T09:10:53.298Z,12.40
2019-05-25T09:13:23.814Z,10.57
2019-05-25T09:15:54.205Z,10.43
2019-05-25T09:18:24.605Z,10.07
2019-05-25T09:20:54.971Z,9.60
2019-05-25T09:23:25.624Z,10.90
2019-05-25T09:25:55.974Z,10.53
2019-05-25T09:28:26.365Z,11.03
2019-05-25T09:30:56.791Z,9.83
2019-05-25T09:33:27.201Z,10.73
2019-05-25T09:35:58.093Z,10.67
2019-05-25T09:38:28.607Z,11.87
2019-05-25T09:40:59.036Z,10.53
2019-05-25T09:43:29.864Z,10.53
2019-05-25T09:46:03.115Z,10.73
2019-05-25T09:48:32.211Z,10.40
2019-05-25T09:51:02.648Z,12.33
2019-05-25T09:53:33.009Z,11.70
2019-05-25T09:56:03.348Z,11.90
2019-05-25T09:58:33.827Z,13.60
2019-05-25T10:01:04.565Z,12.73
2019-05-25T10:03:34.941Z,11.80
2019-05-25T10:06:12.586Z,11.73
2019-05-25T10:08:37.531Z,9.83
2019-05-25T10:11:07.969Z,12.87
2019-05-25T10:13:38.335Z,10.60
2019-05-25T10:16:08.739Z,11.20
2019-05-25T10:18:39.245Z,10.80
2019-05-25T10:21:09.587Z,12.33
2019-05-25T10:23:40.228Z,10.63
2019-05-25T10:26:10.558Z,11.67
2019-05-25T10:28:41.011Z,13.40
2019-05-25T10:31:11.386Z,12.93
2019-05-25T10:33:41.780Z,11.23
2019-05-25T10:36:12.130Z,11.40
2019-05-25T10:38:42.492Z,11.20
2019-05-25T10:41:12.908Z,11.30
2019-05-25T10:43:43.260Z,12.30
2019-05-25T10:46:13.648Z,11.20
2019-05-25T10:48:44.023Z,12.90
2019-05-25T10:51:14.419Z,11.50
2019-05-25T10:53:44.798Z,11.87
2019-05-25T10:56:15.199Z,10.23
2019-05-25T10:58:45.510Z,10.07
2019-05-25T11:01:15.914Z,9.50
2019-05-25T11:03:46.286Z,9.80
2019-05-25T11:06:16.751Z,10.43
2019-05-25T11:08:47.147Z,11.30
2019-05-25T11:11:17.537Z,9.70
2019-05-25T11:13:47.943Z,9.60
2019-05-25T11:16:18.317Z,9.90
2019-05-25T11:18:48.663Z,10.40
2019-05-25T11:21:19.020Z,8.70
2019-05-25T11:23:49.348Z,9.70
2019-05-25T11:26:19.719Z,11.88
2019-05-25T11:28:51.131Z,9.25
2019-05-25T11:31:21.501Z,8.85
2019-05-25T11:33:51.812Z,9.33
2019-05-25T11:36:22.206Z,9.65
2019-05-25T11:38:52.551Z,9.80
2019-05-25T11:41:22.933Z,8.78
2019-05-25T11:43:53.380Z,7.67
2019-05-25T11:46:23.743Z,7.40
2019-05-25T11:48:54.124Z,7.92
2019-05-25T11:51:24.563Z,7.47
2019-05-25T11:53:54.979Z,6.50
2019-05-25T11:56:25.415Z,6.30
2019-05-25T11:58:55.759Z,8.03
2019-05-25T12:01:26.151Z,6.53
2019-05-25T12:03:56.593Z,6.00
2019-05-25T12:06:26.939Z,6.40
2019-05-25T12:08:57.917Z,6.00
2019-05-25T12:11:28.307Z,6.65
2019-05-25T12:13:58.631Z,7.67
2019-05-25T12:16:29.009Z,7.22
2019-05-25T12:18:59.329Z,6.37
2019-05-25T12:21:29.725Z,5.85
2019-05-25T12:24:00.022Z,6.70
2019-05-25T12:26:30.387Z,6.53
2019-05-25T12:29:00.717Z,5.90
2019-05-25T12:34:03.409Z,5.67
2019-05-25T12:36:33.774Z,6.30
2019-05-25T12:39:05.591Z,7.13
2019-05-25T12:41:35.974Z,6.63
2019-05-25T12:44:06.294Z,7.07
2019-05-25T12:46:36.660Z,6.50
2019-05-25T12:49:07.030Z,7.27
2019-05-25T12:51:37.369Z,7.50
2019-05-25T12:54:07.720Z,7.57
2019-05-25T12:56:38.080Z,6.60
2019-05-25T12:59:08.534Z,7.60
2019-05-25T13:01:38.995Z,6.53
2019-05-25T13:04:09.378Z,6.80
2019-05-25T13:06:41.272Z,6.67
2019-05-25T13:09:11.748Z,7.30
2019-05-25T13:11:42.124Z,6.73
2019-05-25T13:14:14.805Z,6.40
2019-05-25T13:16:44.469Z,6.33
2019-05-25T13:19:14.844Z,5.90
2019-05-25T13:21:45.336Z,6.10
2019-05-25T13:24:15.707Z,6.30
2019-05-25T13:26:46.062Z,5.93
2019-05-25T13:29:16.438Z,6.60
2019-05-25T13:31:46.818Z,5.20
2019-05-25T13:34:17.303Z,4.53
2019-05-25T13:36:47.564Z,5.10
2019-05-25T13:39:17.930Z,5.90
2019-05-25T13:41:48.265Z,5.33
2019-05-25T13:44:18.652Z,5.40
2019-05-25T13:46:48.969Z,6.10
2019-05-25T13:49:19.329Z,5.63
2019-05-25T13:51:49.658Z,5.80
2019-05-25T13:54:20.101Z,6.53
2019-05-25T13:56:50.527Z,8.03
2019-05-25T13:59:20.943Z,13.37
2019-05-25T14:01:51.280Z,6.70
2019-05-25T14:04:21.657Z,6.90
2019-05-25T14:06:51.994Z,6.57
2019-05-25T14:09:22.391Z,7.00
2019-05-25T14:11:52.749Z,6.93
2019-05-25T14:14:24.612Z,6.27
2019-05-25T14:16:55.024Z,7.33
2019-05-25T14:19:25.486Z,10.20
2019-05-25T14:21:55.740Z,8.20
2019-05-25T14:24:26.174Z,5.40
2019-05-25T14:26:56.510Z,5.53
2019-05-25T14:29:26.944Z,8.67
2019-05-25T14:31:57.268Z,6.50
2019-05-25T14:34:27.631Z,5.37
2019-05-25T14:36:57.959Z,6.73
2019-05-25T14:39:28.347Z,4.90
2019-05-25T14:41:58.655Z,5.00
2019-05-25T14:44:30.024Z,8.90
2019-05-25T14:47:00.664Z,6.93
2019-05-25T14:49:31.054Z,5.07
2019-05-25T14:52:01.383Z,5.17
2019-05-25T14:54:31.735Z,4.58
2019-05-25T14:57:02.087Z,4.90
2019-05-25T14:59:32.680Z,4.10
2019-05-25T15:02:03.943Z,5.42
2019-05-25T15:04:34.426Z,3.62
2019-05-25T15:07:04.787Z,3.90
2019-05-25T15:09:35.137Z,4.10
2019-05-25T15:12:05.576Z,4.15
2019-05-25T15:14:35.997Z,3.98
2019-05-25T15:17:06.348Z,4.83
2019-05-25T15:19:36.814Z,4.00
2019-05-25T15:22:07.340Z,3.85
2019-05-25T15:24:38.032Z,5.60
2019-05-25T15:27:08.500Z,3.92
2019-05-25T15:29:39.088Z,3.80
2019-05-25T15:32:19.429Z,3.83
2019-05-25T15:34:41.480Z,3.35
2019-05-25T15:37:11.886Z,3.50
2019-05-25T15:39:42.228Z,3.40
2019-05-25T15:42:12.570Z,3.47
2019-05-25T15:44:42.900Z,3.25
2019-05-25T15:47:13.466Z,3.40
2019-05-25T15:49:43.854Z,3.50
2019-05-25T15:52:14.264Z,3.67
2019-05-25T15:54:44.663Z,3.30
2019-05-25T15:57:16.151Z,3.87
2019-05-25T15:59:46.611Z,3.60
2019-05-25T16:02:17.086Z,3.42
2019-05-25T16:04:48.495Z,3.35
2019-05-25T16:07:18.876Z,3.40
2019-05-25T16:09:49.286Z,3.75
2019-05-25T16:12:19.655Z,3.50
2019-05-25T16:14:50.264Z,3.33
2019-05-25T16:17:20.599Z,3.22
2019-05-25T16:19:50.981Z,3.20
2019-05-25T16:22:21.299Z,3.30
2019-05-25T16:24:51.657Z,3.25
2019-05-25T16:27:22.040Z,3.30
2019-05-25T16:29:52.352Z,3.33
2019-05-25T16:32:22.823Z,3.25
2019-05-25T16:34:53.199Z,3.30
2019-05-25T16:37:23.678Z,3.10
2019-05-25T16:39:54.028Z,3.05
2019-05-25T16:42:24.432Z,3.00
2019-05-25T16:44:54.754Z,3.12
2019-05-25T16:47:25.142Z,3.30
2019-05-25T16:49:55.446Z,3.40
2019-05-25T16:52:25.815Z,3.30
2019-05-25T16:54:56.151Z,3.55
2019-05-25T16:57:26.528Z,3.50
2019-05-25T16:59:56.859Z,3.00
2019-05-25T17:02:27.221Z,3.35
2019-05-25T17:04:57.595Z,3.30
2019-05-25T17:07:27.948Z,3.00
2019-05-25T17:09:58.281Z,2.70
2019-05-25T17:12:28.697Z,2.92
2019-05-25T17:14:59.024Z,2.90
2019-05-25T17:17:29.423Z,4.08
2019-05-25T17:19:59.736Z,3.33
2019-05-25T17:22:30.115Z,3.20
2019-05-25T17:25:00.444Z,2.87
2019-05-25T17:27:30.816Z,2.70
2019-05-25T17:30:01.153Z,2.22
2019-05-25T17:32:31.930Z,2.20
2019-05-25T17:35:02.315Z,1.92
2019-05-25T17:37:32.756Z,2.70
2019-05-25T17:40:03.075Z,2.00
2019-05-25T17:42:33.476Z,2.58
2019-05-25T17:45:03.886Z,1.82
2019-05-25T17:47:34.325Z,1.80
2019-05-25T17:50:05.290Z,1.50
2019-05-25T17:52:35.654Z,1.80
2019-05-25T17:55:07.114Z,1.70
2019-05-25T17:57:37.495Z,1.70
2019-05-25T18:00:08.476Z,1.90
2019-05-25T18:02:38.800Z,2.60
2019-05-25T18:05:11.094Z,2.83
2019-05-25T18:07:41.475Z,2.62
2019-05-25T18:10:12.206Z,2.77
2019-05-25T18:12:46.492Z,3.20
2019-05-25T18:15:14.742Z,3.10
2019-05-25T18:17:45.106Z,3.50
2019-05-25T18:20:15.938Z,3.80
2019-05-25T18:22:46.380Z,3.70
2019-05-25T18:25:17.268Z,4.40
2019-05-25T18:27:47.671Z,3.53
2019-05-25T18:30:18.731Z,3.30
2019-05-25T18:32:49.055Z,3.20
2019-05-25T18:35:19.427Z,2.60
2019-05-25T18:37:49.783Z,2.70
2019-05-25T18:40:20.936Z,2.70
2019-05-25T18:42:52.270Z,2.90
2019-05-25T18:45:22.748Z,4.40
2019-05-25T18:47:53.161Z,3.00
2019-05-25T18:50:23.912Z,3.20
2019-05-25T18:52:54.305Z,2.90
2019-05-25T18:55:24.616Z,3.00
2019-05-25T18:57:54.989Z,2.50
2019-05-25T19:00:25.626Z,2.80
2019-05-25T19:02:56.146Z,2.50
2019-05-25T19:05:26.458Z,2.83
2019-05-25T19:07:57.089Z,2.47
2019-05-25T19:10:27.520Z,2.40
2019-05-25T19:12:57.929Z,2.60
2019-05-25T19:15:28.314Z,2.87
2019-05-25T19:17:58.667Z,2.90
2019-05-25T19:20:29.094Z,3.00
2019-05-25T19:22:59.522Z,3.10
2019-05-25T19:25:29.874Z,3.13
2019-05-25T19:28:00.245Z,2.70
2019-05-25T19:30:30.627Z,3.00
2019-05-25T19:33:00.976Z,3.37
2019-05-25T19:35:32.697Z,3.10
2019-05-25T19:38:03.022Z,3.63
2019-05-25T19:40:33.875Z,3.70
2019-05-25T19:43:04.340Z,3.50
2019-05-25T19:45:34.725Z,2.97
2019-05-25T19:48:05.709Z,3.00
2019-05-25T19:50:36.081Z,2.73
2019-05-25T19:53:06.448Z,3.00
2019-05-25T19:55:36.873Z,3.00
2019-05-25T19:58:07.303Z,4.10
2019-05-25T20:00:37.677Z,3.40
2019-05-25T20:03:07.980Z,3.03
2019-05-25T20:05:38.399Z,3.00
2019-05-25T20:08:08.745Z,2.70
2019-05-25T20:10:39.261Z,3.03
2019-05-25T20:13:09.612Z,3.23
2019-05-25T20:15:40.019Z,2.70
2019-05-25T20:18:10.413Z,2.60
2019-05-25T20:20:40.830Z,2.40
2019-05-25T20:23:11.155Z,2.53
2019-05-25T20:25:44.343Z,2.40
2019-05-25T20:28:14.769Z,2.27
2019-05-25T20:30:45.274Z,2.40
2019-05-25T20:33:26.958Z,2.40
2019-05-25T20:35:48.676Z,2.40
2019-05-25T20:38:19.078Z,2.60
2019-05-25T20:40:49.459Z,2.40
2019-05-25T20:43:19.792Z,2.30
2019-05-25T20:45:50.172Z,2.43
2019-05-25T20:48:21.657Z,3.10
2019-05-25T20:50:52.304Z,2.90
2019-05-25T20:53:22.751Z,2.83
2019-05-25T20:55:54.203Z,3.10
2019-05-25T20:58:24.592Z,3.03
2019-05-25T21:00:55.123Z,3.10
2019-05-25T21:03:25.513Z,2.70
2019-05-25T21:05:55.934Z,2.83
2019-05-25T21:08:26.265Z,2.90
2019-05-25T21:10:56.865Z,2.80
2019-05-25T21:13:27.383Z,2.70
2019-05-25T21:15:57.903Z,2.50
2019-05-25T21:18:28.284Z,3.80
2019-05-25T21:20:58.753Z,2.23
2019-05-25T21:23:29.077Z,2.30
2019-05-25T21:25:59.490Z,2.30
2019-05-25T21:28:30.249Z,2.20
2019-05-25T21:31:01.004Z,2.10
2019-05-25T21:33:31.641Z,2.30
2019-05-25T21:36:08.458Z,2.50
2019-05-25T21:38:34.015Z,2.47
2019-05-25T21:41:04.463Z,2.53
2019-05-25T21:43:34.839Z,2.30
2019-05-25T21:46:05.219Z,2.40
2019-05-25T21:48:35.527Z,2.43
2019-05-25T21:51:07.099Z,2.83
2019-05-25T21:53:37.430Z,2.80
2019-05-25T21:56:07.943Z,2.60
2019-05-25T21:58:38.376Z,2.53
2019-05-25T22:01:09.131Z,2.60
2019-05-25T22:03:39.477Z,2.50
2019-05-25T22:06:23.360Z,2.47
2019-05-25T22:08:42.393Z,2.60
2019-05-25T22:11:12.882Z,2.60
2019-05-25T22:13:43.402Z,2.73
2019-05-25T22:16:13.949Z,2.40
2019-05-25T22:18:44.686Z,2.50
2019-05-25T22:21:15.248Z,2.27
2019-05-25T22:23:46.125Z,2.53
2019-05-25T22:26:16.713Z,2.70
2019-05-25T22:28:47.455Z,2.63
2019-05-25T22:31:17.925Z,2.87
2019-05-25T22:33:48.250Z,2.63
2019-05-25T22:36:18.618Z,3.03
2019-05-25T22:38:48.934Z,2.90
2019-05-25T22:41:20.123Z,3.60
2019-05-25T22:43:50.706Z,3.60
2019-05-25T22:46:21.020Z,3.70
2019-05-25T22:48:51.396Z,4.30
2019-05-25T22:51:21.760Z,4.00
2019-05-25T22:53:53.963Z,3.70
2019-05-25T22:56:26.015Z,3.80
2019-05-25T22:58:58.348Z,4.00
2019-05-25T23:01:33.436Z,3.70
2019-05-25T23:04:03.937Z,4.37
2019-05-25T23:06:34.240Z,4.30
2019-05-25T23:09:05.892Z,4.50
2019-05-25T23:11:36.259Z,4.23
2019-05-25T23:14:09.695Z,4.17
2019-05-25T23:16:38.676Z,4.60
2019-05-25T23:19:09.085Z,4.60
2019-05-25T23:21:39.377Z,4.53
2019-05-25T23:24:09.762Z,4.90
2019-05-25T23:26:40.164Z,4.77
2019-05-25T23:29:10.619Z,4.70
2019-05-25T23:31:41.026Z,4.47
2019-05-25T23:34:11.410Z,4.83
2019-05-25T23:36:41.817Z,4.50
2019-05-25T23:39:12.237Z,4.50
2019-05-25T23:41:42.565Z,5.00
2019-05-25T23:44:13.067Z,5.40
2019-05-25T23:46:43.560Z,5.30
2019-05-25T23:49:14.127Z,4.93
2019-05-25T23:51:44.523Z,5.20
2019-05-25T23:54:15.018Z,5.40
2019-05-25T23:56:45.325Z,5.43
2019-05-25T23:59:15.705Z,4.93
